Time;durP1;ratioP1;P1;durP2;ratioP2;P2;SDS_P1;SDS_P2;PMS_P1;PMS_P2;Temp;Humidity;BMP_temperature;BMP_pressure;BME280_temperature;BME280_humidity;BME280_pressure;Samples;Min_cycle;Max_cycle;Signal;HPM_P1;HPM_P2
2023/10/01 00:00:36;;;;;;;20.90;15.10;;;;;;;17.79;58.81;100606.90;104939;1260;59509;-56
2023/10/01 00:03:06;;;;;;;20.60;15.70;;;;;;;17.80;58.69;100600.95;105211;1254;62905;-56
2023/10/01 00:05:35;;;;;;;20.80;15.10;;;;;;;17.79;58.56;100602.51;105014;1254;63534;-55
2023/10/01 00:08:03;;;;;;;21.20;16.00;;;;;;;17.76;58.67;100599.79;105355;1260;62449;-55
2023/10/01 00:10:31;;;;;;;19.40;15.80;;;;;;;17.73;58.76;100598.11;105216;1258;60570;-55
2023/10/01 00:12:58;;;;;;;18.60;15.50;;;;;;;17.72;58.53;100598.23;105000;1260;61172;-55
2023/10/01 00:15:27;;;;;;;20.50;15.80;;;;;;;17.71;58.05;100597.67;105350;1262;64990;-55
2023/10/01 00:17:56;;;;;;;24.10;16.70;;;;;;;17.69;57.63;100594.56;105411;1254;61390;-56
2023/10/01 00:20:24;;;;;;;20.20;15.90;;;;;;;17.65;57.36;100592.45;105414;1261;62711;-57
2023/10/01 00:22:56;;;;;;;22.00;15.50;;;;;;;17.62;57.03;100592.41;105645;1260;60496;-55
2023/10/01 00:25:26;;;;;;;19.10;15.30;;;;;;;17.60;56.53;100591.91;105543;1260;60466;-59
2023/10/01 00:27:55;;;;;;;20.30;15.30;;;;;;;17.57;56.28;100590.57;105442;1260;63676;-56
2023/10/01 00:30:22;;;;;;;20.80;16.00;;;;;;;17.56;56.28;100586.32;105057;1261;60667;-58
2023/10/01 00:32:50;;;;;;;21.40;15.70;;;;;;;17.55;56.06;100584.25;105081;1261;62424;-56
2023/10/01 00:35:17;;;;;;;21.90;15.60;;;;;;;17.54;56.09;100582.91;105099;1257;60585;-56
2023/10/01 00:37:45;;;;;;;18.30;15.00;;;;;;;17.53;56.08;100583.61;105473;1256;59356;-55
2023/10/01 00:40:13;;;;;;;21.60;16.10;;;;;;;17.53;56.27;100585.05;104958;1260;65452;-55
2023/10/01 00:42:41;;;;;;;25.30;14.10;;;;;;;17.55;56.38;100585.72;105551;1254;60583;-55
2023/10/01 00:45:13;;;;;;;21.30;14.20;;;;;;;17.59;56.26;100584.95;105127;1260;63776;-55
2023/10/01 00:47:42;;;;;;;21.10;15.40;;;;;;;17.59;56.27;100584.72;105707;1255;60435;-56
2023/10/01 00:50:16;;;;;;;23.70;16.40;;;;;;;17.58;55.95;100582.12;105151;1255;61065;-58
2023/10/01 00:52:44;;;;;;;22.00;15.50;;;;;;;17.58;55.57;100576.27;105542;1258;65461;-58
2023/10/01 00:55:13;;;;;;;23.70;15.20;;;;;;;17.59;56.00;100573.23;105083;1260;61318;-59
2023/10/01 00:57:42;;;;;;;24.00;15.90;;;;;;;17.56;56.24;100576.01;105834;1255;63723;-59
2023/10/01 01:00:13;;;;;;;18.60;15.40;;;;;;;17.52;56.01;100576.02;104940;1261;60568;-58
2023/10/01 01:02:56;;;;;;;21.60;15.70;;;;;;;17.50;56.15;100577.89;105790;1258;60389;-59
2023/10/01 01:05:34;;;;;;;22.10;15.70;;;;;;;17.46;56.39;100577.41;106334;1257;65046;-60
2023/10/01 01:08:10;;;;;;;23.70;16.20;;;;;;;17.47;56.88;100579.65;105069;1254;61557;-60
2023/10/01 01:10:41;;;;;;;20.90;14.30;;;;;;;17.52;56.69;100585.11;105160;1260;63939;-58
2023/10/01 01:13:16;;;;;;;19.60;14.60;;;;;;;17.57;56.01;100581.73;104981;1260;60609;-58
2023/10/01 01:15:46;;;;;;;21.50;14.40;;;;;;;17.59;55.87;100573.33;105900;1260;60441;-59
2023/10/01 01:18:14;;;;;;;18.10;13.70;;;;;;;17.58;56.70;100575.94;105798;1254;63703;-58
2023/10/01 01:20:45;;;;;;;19.80;15.30;;;;;;;17.55;57.17;100575.27;105497;1254;61552;-59
2023/10/01 01:23:17;;;;;;;23.20;14.70;;;;;;;17.50;57.07;100577.23;104747;1257;62549;-61
2023/10/01 01:25:46;;;;;;;19.80;15.40;;;;;;;17.44;57.24;100579.41;105597;1258;60440;-58
2023/10/01 01:28:23;;;;;;;19.90;15.40;;;;;;;17.37;57.62;100578.53;104650;1260;60454;-60
2023/10/01 01:30:52;;;;;;;17.80;14.60;;;;;;;17.32;57.71;100581.57;105677;1254;63712;-58
2023/10/01 01:33:21;;;;;;;19.70;14.00;;;;;;;17.30;57.69;100579.64;105570;1260;62124;-60
2023/10/01 01:35:53;;;;;;;22.60;15.50;;;;;;;17.31;57.88;100579.42;104949;1261;63738;-56
2023/10/01 01:38:21;;;;;;;25.40;15.70;;;;;;;17.30;57.96;100580.69;104931;1255;61075;-56
2023/10/01 01:40:51;;;;;;;19.90;14.90;;;;;;;17.29;58.50;100576.77;105092;1260;60683;-56
2023/10/01 01:43:22;;;;;;;21.00;15.00;;;;;;;17.27;58.67;100573.38;105474;1260;64969;-56
2023/10/01 01:46:00;;;;;;;21.90;14.90;;;;;;;17.25;58.51;100571.98;106147;1255;60591;-58
2023/10/01 01:48:31;;;;;;;21.70;15.30;;;;;;;17.21;58.40;100564.69;105096;1260;62560;-58
2023/10/01 01:51:00;;;;;;;20.50;15.10;;;;;;;17.14;58.44;100560.55;105430;1260;60724;-57
2023/10/01 01:53:35;;;;;;;19.00;15.10;;;;;;;17.09;58.53;100559.64;105392;1257;60421;-57
2023/10/01 01:56:10;;;;;;;19.10;14.30;;;;;;;17.08;58.49;100557.80;105109;1261;65335;-58
2023/10/01 01:58:39;;;;;;;17.40;14.20;;;;;;;17.07;58.61;100558.23;104746;1257;61453;-57
2023/10/01 02:01:08;;;;;;;20.00;14.80;;;;;;;17.03;58.50;100555.48;108256;1254;64324;-56
2023/10/01 02:03:37;;;;;;;24.50;15.90;;;;;;;16.99;58.63;100555.91;105051;1254;61643;-59
2023/10/01 02:06:06;;;;;;;17.40;14.60;;;;;;;16.96;58.57;100558.23;105915;1254;60473;-57
2023/10/01 02:08:48;;;;;;;18.80;14.60;;;;;;;16.90;58.45;100555.04;104878;1259;64892;-57
2023/10/01 02:11:18;;;;;;;20.00;14.90;;;;;;;16.84;58.72;100553.38;106426;1254;61564;-58
2023/10/01 02:13:47;;;;;;;24.20;17.80;;;;;;;16.80;58.76;100558.25;105544;1258;63879;-57
2023/10/01 02:18:57;;;;;;;84.00;55.60;;;;;;;16.74;58.91;100564.50;104684;1254;60498;-57
2023/10/01 02:21:42;;;;;;;69.30;46.10;;;;;;;16.76;59.06;100568.86;105328;1257;65447;-60
2023/10/01 02:24:19;;;;;;;84.30;54.10;;;;;;;16.79;59.42;100567.05;104818;1260;61322;-60
2023/10/01 02:26:47;;;;;;;37.80;27.20;;;;;;;16.79;59.96;100557.48;105564;1257;73213;-59
2023/10/01 02:29:16;;;;;;;28.90;19.00;;;;;;;16.78;60.04;100557.02;104885;1254;60417;-59
2023/10/01 02:31:55;;;;;;;20.00;15.80;;;;;;;16.78;60.06;100558.48;105555;1260;60911;-59
2023/10/01 02:34:24;;;;;;;16.70;14.40;;;;;;;16.73;59.95;100555.60;105475;1254;63726;-59
2023/10/01 02:36:51;;;;;;;22.00;15.60;;;;;;;16.68;60.07;100556.27;106269;1257;62693;-59
2023/10/01 02:39:28;;;;;;;21.00;14.30;;;;;;;16.65;60.25;100554.50;105172;1254;62524;-59
2023/10/01 02:44:34;;;;;;;17.40;13.50;;;;;;;16.62;60.71;100564.84;104856;1257;61043;-59
2023/10/01 02:47:09;;;;;;;18.10;14.80;;;;;;;16.60;60.91;100560.15;104941;1256;63673;-60
2023/10/01 02:49:47;;;;;;;21.20;14.60;;;;;;;16.55;61.37;100556.90;104748;1254;70428;-57
2023/10/01 02:52:19;;;;;;;17.60;14.30;;;;;;;16.50;61.59;100552.86;105090;1254;63834;-60
2023/10/01 02:54:47;;;;;;;20.70;16.30;;;;;;;16.44;61.66;100560.09;105504;1260;60551;-59
2023/10/01 02:57:23;;;;;;;21.40;15.90;;;;;;;16.40;61.92;100565.31;105481;1261;60546;-60
2023/10/01 03:00:20;;;;;;;17.40;13.20;;;;;;;16.36;62.11;100560.21;106405;1255;64923;-59
2023/10/01 03:02:53;;;;;;;;;;;;;;;16.38;62.06;100556.67;105622;1260;61438;-57
2023/10/01 03:05:32;;;;;;;17.90;14.20;;;;;;;16.42;61.92;100555.62;105554;1261;62826;-58
2023/10/01 03:08:03;;;;;;;19.30;14.40;;;;;;;16.41;61.85;100558.88;105138;1260;60478;-59
2023/10/01 03:10:32;;;;;;;22.90;15.10;;;;;;;16.39;61.73;100556.61;105428;1254;60558;-57
2023/10/01 03:13:14;;;;;;;21.40;15.90;;;;;;;16.33;61.79;100557.86;106159;1254;63720;-59
2023/10/01 03:15:44;;;;;;;20.80;14.70;;;;;;;16.25;61.90;100555.81;105161;1258;68496;-57
2023/10/01 03:25:57;;;;;;;19.50;14.80;;;;;;;16.13;62.04;100551.58;105717;1260;64925;-57
2023/10/01 03:28:32;;;;;;;20.20;14.40;;;;;;;16.11;62.20;100553.49;107220;1254;62112;-58
2023/10/01 03:31:09;;;;;;;25.20;16.30;;;;;;;16.10;62.29;100555.04;105192;1257;65232;-59
2023/10/01 03:33:38;;;;;;;24.80;17.00;;;;;;;16.08;62.39;100553.88;107525;1256;60542;-58
2023/10/01 03:36:10;;;;;;;19.80;14.80;;;;;;;16.05;62.55;100554.13;105122;1256;60534;-59
2023/10/01 03:38:40;;;;;;;20.60;16.10;;;;;;;16.04;62.57;100554.14;105104;1261;64903;-58
2023/10/01 03:41:20;;;;;;;20.90;16.80;;;;;;;16.01;62.29;100549.30;105099;1254;60427;-63
2023/10/01 03:44:09;;;;;;;26.50;17.40;;;;;;;15.97;62.02;100548.41;106331;1256;63932;-56
2023/10/01 03:46:45;;;;;;;23.40;19.20;;;;;;;15.98;60.73;100551.35;104996;1256;60483;-56
2023/10/01 03:51:59;;;;;;;31.40;19.30;;;;;;;15.92;57.61;100552.33;104977;1254;64915;-59
2023/10/01 03:57:19;;;;;;;29.70;20.50;;;;;;;15.78;56.68;100557.89;105039;1256;64574;-59
2023/10/01 03:59:53;;;;;;;27.20;20.10;;;;;;;15.73;56.65;100553.39;104770;1257;60485;-60
2023/10/01 04:02:28;;;;;;;27.90;21.80;;;;;;;15.69;56.61;100557.90;104815;1260;61020;-59
2023/10/01 04:04:56;;;;;;;30.00;22.10;;;;;;;15.62;55.61;100563.37;105562;1254;63650;-57
2023/10/01 04:07:42;;;;;;;28.20;20.70;;;;;;;15.50;54.97;100571.24;106262;1254;61369;-57
2023/10/01 04:10:14;;;;;;;26.60;20.90;;;;;;;15.35;55.01;100571.98;105093;1257;64282;-56
2023/10/01 04:12:44;;;;;;;28.80;21.70;;;;;;;15.23;55.33;100572.84;106521;1260;60584;-57
2023/10/01 04:15:27;;;;;;;31.10;20.60;;;;;;;15.11;55.61;100579.56;105723;1256;60412;-54
2023/10/01 04:21:34;;;;;;;29.00;21.40;;;;;;;14.97;56.31;100591.88;104949;1257;63811;-64
2023/10/01 04:23:33;;;;;;;25.70;18.70;;;;;;;14.92;56.74;100594.45;106908;1256;64844;-62
2023/10/01 04:26:06;;;;;;;25.70;19.10;;;;;;;14.93;57.02;100599.85;105023;1261;61683;-65
2023/10/01 04:28:44;;;;;;;28.90;19.20;;;;;;;14.94;57.19;100600.98;105068;1254;60587;-65
2023/10/01 04:31:15;;;;;;;28.40;21.40;;;;;;;14.94;57.47;100601.73;107365;1256;65185;-67
2023/10/01 04:33:45;;;;;;;25.00;19.60;;;;;;;14.95;57.77;100605.88;106422;1254;61718;-57
2023/10/01 04:36:19;;;;;;;28.10;21.20;;;;;;;14.97;58.08;100609.22;108040;1257;62506;-57
2023/10/01 04:38:51;;;;;;;28.50;20.70;;;;;;;14.95;58.29;100607.40;105644;1256;61440;-58
2023/10/01 04:41:21;;;;;;;25.40;20.30;;;;;;;14.93;58.60;100610.59;107154;1254;60400;-60
2023/10/01 04:43:55;;;;;;;27.00;20.20;;;;;;;14.93;58.66;100605.91;105345;1254;67575;-55
2023/10/01 04:46:25;;;;;;;24.60;18.60;;;;;;;14.93;58.91;100608.52;105314;1258;61510;-58
2023/10/01 04:48:54;;;;;;;23.20;17.30;;;;;;;14.96;59.29;100613.67;104984;1258;62455;-60
2023/10/01 04:51:22;;;;;;;23.60;17.90;;;;;;;15.00;59.44;100617.70;107142;1256;60553;-56
2023/10/01 04:53:51;;;;;;;23.70;18.30;;;;;;;15.02;59.70;100616.52;104659;1260;61994;-57
2023/10/01 04:56:25;;;;;;;28.40;17.90;;;;;;;15.06;60.07;100618.59;104863;1254;66125;-71
2023/10/01 04:58:54;;;;;;;23.00;18.10;;;;;;;15.11;60.35;100616.20;105305;1260;60568;-59
2023/10/01 05:01:24;;;;;;;25.60;19.20;;;;;;;15.12;60.60;100615.89;107598;1256;63661;-56
2023/10/01 05:03:54;;;;;;;23.80;17.60;;;;;;;15.14;60.87;100612.90;104854;1254;60568;-54
2023/10/01 05:06:22;;;;;;;23.60;17.70;;;;;;;15.24;61.10;100612.29;106991;1259;59047;-52
2023/10/01 05:08:53;;;;;;;22.30;18.00;;;;;;;15.37;61.01;100616.02;104906;1254;63741;-55
2023/10/01 05:11:29;;;;;;;23.30;17.40;;;;;;;15.45;60.97;100612.06;108975;1254;63571;-54
2023/10/01 05:13:58;;;;;;;22.40;17.30;;;;;;;15.54;61.03;100621.38;108954;1253;63762;-54
2023/10/01 05:16:26;;;;;;;23.40;17.60;;;;;;;15.62;61.02;100617.42;108797;1257;58800;-53
2023/10/01 05:19:23;;;;;;;25.40;18.00;;;;;;;15.67;60.91;100622.61;108853;1260;60209;-52
2023/10/01 05:21:46;;;;;;;22.10;16.90;;;;;;;15.71;60.93;100620.48;108830;1256;64871;-50
2023/10/01 05:24:16;;;;;;;25.80;17.10;;;;;;;15.81;61.02;100618.83;108823;1262;60284;-52
2023/10/01 05:26:44;;;;;;;23.50;16.80;;;;;;;15.92;61.01;100618.60;109022;1253;64183;-56
2023/10/01 05:29:20;;;;;;;22.50;16.70;;;;;;;16.00;60.82;100617.27;106546;1254;61176;-59
2023/10/01 05:31:47;;;;;;;23.70;16.30;;;;;;;16.05;60.91;100621.02;104940;1254;60431;-57
2023/10/01 05:34:15;;;;;;;22.80;16.60;;;;;;;16.08;60.98;100624.41;104989;1260;64891;-55
2023/10/01 05:36:43;;;;;;;24.20;18.00;;;;;;;16.12;60.99;100625.84;104867;1260;60441;-55
2023/10/01 05:39:11;;;;;;;23.70;16.20;;;;;;;16.15;61.23;100629.25;104738;1257;62532;-58
2023/10/01 05:41:44;;;;;;;19.40;15.40;;;;;;;16.24;61.10;100631.09;104774;1257;61661;-59
2023/10/01 05:44:12;;;;;;;22.60;16.40;;;;;;;16.33;61.20;100632.09;108821;1260;58247;-58
2023/10/01 05:46:40;;;;;;;22.70;17.20;;;;;;;16.47;61.16;100634.02;108854;1254;65146;-58
2023/10/01 05:49:08;;;;;;;23.10;16.70;;;;;;;16.61;60.91;100638.52;108840;1254;61450;-59
2023/10/01 05:51:45;;;;;;;21.10;16.30;;;;;;;16.68;60.89;100641.66;108879;1254;65027;-58
2023/10/01 05:54:18;;;;;;;22.30;15.80;;;;;;;16.75;60.96;100640.21;106563;1256;59368;-58
2023/10/01 05:56:48;;;;;;;17.00;14.40;;;;;;;16.83;61.02;100641.69;104980;1260;60433;-58
2023/10/01 05:59:20;;;;;;;19.20;14.90;;;;;;;16.97;60.92;100649.55;105588;1260;65087;-60
2023/10/01 06:01:48;;;;;;;18.40;15.60;;;;;;;17.12;60.75;100653.83;108719;1255;71732;-58
2023/10/01 06:04:18;;;;;;;18.90;14.80;;;;;;;17.21;60.62;100654.86;107226;1256;63445;-58
2023/10/01 06:06:46;;;;;;;17.80;15.10;;;;;;;17.25;60.91;100654.65;106402;1256;60682;-60
2023/10/01 06:09:16;;;;;;;20.70;15.30;;;;;;;17.29;61.05;100653.53;106499;1255;60363;-58
2023/10/01 06:12:03;;;;;;;17.60;14.40;;;;;;;17.36;61.26;100654.39;104771;1258;65036;-59
2023/10/01 06:14:39;;;;;;;20.20;15.40;;;;;;;17.48;61.23;100661.41;105814;1260;61682;-58
2023/10/01 06:17:07;;;;;;;17.70;14.40;;;;;;;17.60;61.13;100661.09;104930;1259;63740;-58
2023/10/01 06:19:38;;;;;;;22.70;15.20;;;;;;;17.70;61.36;100659.72;104885;1260;60607;-51
2023/10/01 06:22:12;;;;;;;19.00;14.60;;;;;;;17.78;61.26;100663.23;106443;1256;60448;-50
2023/10/01 06:24:43;;;;;;;21.60;14.50;;;;;;;17.86;60.86;100660.99;105015;1256;64943;-52
2023/10/01 06:27:17;;;;;;;19.60;14.40;;;;;;;17.94;60.87;100665.02;105093;1260;60501;-55
2023/10/01 06:29:51;;;;;;;20.10;15.70;;;;;;;18.05;61.03;100671.63;105679;1256;62457;-52
2023/10/01 06:32:19;;;;;;;20.70;14.60;;;;;;;18.16;60.73;100669.85;108820;1258;60545;-47
2023/10/01 06:34:49;;;;;;;17.80;14.30;;;;;;;18.26;60.77;100674.10;105590;1256;60569;-47
2023/10/01 06:37:19;;;;;;;18.60;14.60;;;;;;;18.38;60.76;100674.27;105608;1256;64890;-54
2023/10/01 06:39:46;;;;;;;16.90;14.60;;;;;;;18.50;60.81;100672.57;104939;1256;61787;-53
2023/10/01 06:42:20;;;;;;;20.50;14.80;;;;;;;18.67;60.71;100673.45;104842;1257;64226;-50
2023/10/01 06:44:52;;;;;;;17.90;14.50;;;;;;;18.84;60.93;100675.84;104875;1257;60643;-48
2023/10/01 06:47:25;;;;;;;15.00;12.80;;;;;;;18.95;61.40;100674.63;106480;1256;58953;-50
2023/10/01 06:49:59;;;;;;;18.20;13.70;;;;;;;19.00;61.85;100679.39;106487;1257;64912;-53
2023/10/01 06:52:28;;;;;;;17.90;13.40;;;;;;;19.06;62.20;100683.00;105938;1256;61402;-53
2023/10/01 06:54:57;;;;;;;15.40;12.80;;;;;;;19.11;62.15;100688.16;108878;1256;63779;-55
2023/10/01 06:57:31;;;;;;;14.30;12.50;;;;;;;19.11;62.65;100696.98;106084;1256;60453;-57
2023/10/01 07:00:17;;;;;;;15.40;13.30;;;;;;;19.08;62.92;100702.34;104806;1256;60561;-58
2023/10/01 07:02:45;;;;;;;18.40;13.10;;;;;;;18.99;63.22;100704.09;104523;1259;65539;-55
2023/10/01 07:05:20;;;;;;;17.20;14.50;;;;;;;18.90;63.48;100704.84;104603;1257;60438;-56
2023/10/01 07:07:48;;;;;;;18.80;14.90;;;;;;;18.84;63.81;100704.97;104856;1257;63760;-59
2023/10/01 07:10:19;;;;;;;18.90;14.80;;;;;;;18.78;64.00;100710.95;107290;1256;60605;-57
2023/10/01 07:12:58;;;;;;;20.30;15.10;;;;;;;18.75;64.57;100713.26;104944;1259;60335;-57
2023/10/01 07:15:26;;;;;;;18.80;13.90;;;;;;;18.80;64.64;100714.55;105259;1254;63639;-57
2023/10/01 07:17:57;;;;;;;21.60;15.10;;;;;;;18.87;64.37;100714.09;105026;1254;64556;-56
2023/10/01 07:20:25;;;;;;;21.60;14.90;;;;;;;18.94;64.04;100716.55;105306;1257;63825;-57
2023/10/01 07:22:54;;;;;;;18.90;14.60;;;;;;;18.93;64.15;100719.95;104765;1260;60546;-57
2023/10/01 07:25:42;;;;;;;21.00;14.40;;;;;;;18.91;64.16;100720.47;106148;1254;60622;-56
2023/10/01 07:28:18;;;;;;;19.80;14.60;;;;;;;18.93;63.92;100719.46;105567;1254;64910;-57
2023/10/01 07:30:47;;;;;;;21.20;14.60;;;;;;;18.97;63.96;100721.52;105708;1260;60463;-57
2023/10/01 07:33:14;;;;;;;20.20;16.20;;;;;;;19.00;63.83;100727.29;108158;1254;63875;-57
2023/10/01 07:35:44;;;;;;;18.90;15.00;;;;;;;19.02;63.63;100727.34;104743;1260;60587;-56
2023/10/01 07:38:13;;;;;;;18.30;13.70;;;;;;;19.07;63.54;100730.57;105682;1254;60430;-59
2023/10/01 07:40:58;;;;;;;19.40;15.40;;;;;;;19.13;63.47;100726.19;105875;1256;65057;-56
2023/10/01 07:43:30;;;;;;;20.90;16.20;;;;;;;19.19;63.35;100728.08;106964;1256;60405;-59
2023/10/01 07:46:02;;;;;;;19.50;15.50;;;;;;;19.19;63.26;100728.70;105117;1254;62465;-55
2023/10/01 07:48:31;;;;;;;20.20;15.70;;;;;;;19.17;63.24;100728.63;104765;1259;60535;-61
2023/10/01 07:51:02;;;;;;;19.20;14.50;;;;;;;19.16;63.05;100731.58;108870;1254;58879;-59
2023/10/01 07:53:33;;;;;;;17.80;14.80;;;;;;;19.16;63.09;100729.21;105166;1254;64048;-55
2023/10/01 07:56:02;;;;;;;16.90;14.20;;;;;;;19.19;62.99;100726.61;104902;1254;61763;-56
2023/10/01 07:58:45;;;;;;;20.00;15.70;;;;;;;19.22;63.04;100726.43;105259;1257;63681;-56
2023/10/01 08:07:15;;;;;;;20.50;16.10;;;;;;;19.12;63.40;100729.70;102340;1289;601801;-57
2023/10/01 08:09:51;;;;;;;24.50;14.80;;;;;;;19.27;62.73;100733.39;104912;1267;59488;-54
2023/10/01 08:12:28;;;;;;;19.00;13.30;;;;;;;19.25;62.55;100736.94;103992;1270;59897;-59
2023/10/01 08:15:29;;;;;;;16.70;14.00;;;;;;;19.22;62.56;100740.61;104074;1269;72843;-58
2023/10/01 08:17:47;;;;;;;18.00;13.40;;;;;;;19.17;62.65;100740.39;104182;1267;63638;-56
2023/10/01 08:20:17;;;;;;;17.50;14.10;;;;;;;19.12;62.80;100740.83;104089;1266;256937;-59
2023/10/01 08:23:12;;;;;;;20.50;14.60;;;;;;;19.09;62.73;100742.20;104431;1268;59334;-57
2023/10/01 08:25:32;;;;;;;18.00;13.50;;;;;;;19.07;62.53;100749.70;105020;1254;59683;-63
2023/10/01 08:30:43;;;;;;;16.00;11.80;;;;;;;18.93;62.72;100746.42;105008;1254;60359;-59
2023/10/01 08:33:22;;;;;;;17.80;12.00;;;;;;;18.89;62.96;100750.14;108253;1255;62443;-58
2023/10/01 08:38:37;;;;;;;18.00;12.00;;;;;;;18.83;62.96;100755.18;104709;1255;59685;-57
2023/10/01 08:41:05;;;;;;;15.20;11.50;;;;;;;18.78;63.11;100759.86;108906;1254;64166;-57
2023/10/01 08:43:36;;;;;;;15.20;10.90;;;;;;;18.76;63.04;100760.60;106806;1254;60395;-58
2023/10/01 08:46:17;;;;;;;12.90;10.00;;;;;;;18.76;62.71;100760.90;104961;1257;63778;-59
2023/10/01 08:48:45;;;;;;;13.50;8.80;;;;;;;18.75;62.76;100759.64;105572;1260;59653;-59
2023/10/01 08:51:12;;;;;;;14.00;9.60;;;;;;;18.68;62.40;100756.85;104807;1256;59664;-59
2023/10/01 08:53:42;;;;;;;15.10;9.00;;;;;;;18.61;62.48;100764.02;105051;1257;64100;-59
2023/10/01 08:56:13;;;;;;;14.30;8.80;;;;;;;18.55;62.42;100766.80;104924;1254;61579;-56
2023/10/01 08:58:48;;;;;;;12.60;9.40;;;;;;;18.48;62.20;100769.80;104919;1256;63721;-55
2023/10/01 09:01:23;;;;;;;14.60;8.70;;;;;;;18.44;62.55;100773.84;104821;1256;61376;-56
2023/10/01 09:03:55;;;;;;;13.70;7.70;;;;;;;18.39;62.26;100771.52;104812;1254;59759;-58
2023/10/01 09:06:27;;;;;;;11.20;7.30;;;;;;;18.41;61.90;100774.68;108837;1255;64594;-58
2023/10/01 09:09:19;;;;;;;13.00;7.00;;;;;;;18.44;60.90;100771.76;105216;1258;60120;-59
2023/10/01 09:11:50;;;;;;;14.50;7.50;;;;;;;18.42;60.45;100773.88;105734;1258;62776;-58
2023/10/01 09:14:34;;;;;;;9.50;6.20;;;;;;;18.33;60.53;100772.30;105054;1256;59639;-59
2023/10/01 09:17:02;;;;;;;11.10;6.50;;;;;;;18.31;60.92;100782.28;105223;1258;60553;-59
2023/10/01 09:19:31;;;;;;;10.90;7.20;;;;;;;18.35;61.06;100784.73;105191;1256;64211;-59
2023/10/01 09:25:16;;;;;;;11.20;7.00;;;;;;;18.39;61.25;100791.39;106115;1256;63739;-58
2023/10/01 09:27:57;;;;;;;9.10;5.80;;;;;;;18.32;61.84;100796.35;105031;1260;59637;-53
2023/10/01 09:30:31;;;;;;;10.40;6.00;;;;;;;18.25;62.35;100799.69;105476;1255;59797;-55
2023/10/01 09:33:05;;;;;;;9.60;5.70;;;;;;;18.18;62.28;100799.14;105140;1255;64642;-58
2023/10/01 09:36:03;;;;;;;10.70;5.90;;;;;;;18.12;62.39;100802.56;105417;1254;61468;-58
2023/10/01 09:38:30;;;;;;;;;;;;;;;18.06;62.75;100803.46;105368;1258;63756;-57
2023/10/01 09:40:58;;;;;;;7.80;4.30;;;;;;;17.99;62.89;100805.05;105424;1256;59750;-57
2023/10/01 09:43:30;;;;;;;10.00;5.30;;;;;;;17.97;62.99;100810.36;105616;1254;59773;-58
2023/10/01 09:46:00;;;;;;;8.40;5.70;;;;;;;17.97;62.66;100809.80;105236;1259;64072;-57
2023/10/01 09:48:33;;;;;;;10.10;6.70;;;;;;;17.93;62.58;100809.88;105450;1260;60508;-57
2023/10/01 09:51:14;;;;;;;8.90;6.10;;;;;;;17.89;62.67;100816.41;105397;1256;63845;-57
2023/10/01 09:53:51;;;;;;;9.10;5.40;;;;;;;17.81;62.43;100819.45;105187;1260;60681;-58
2023/10/01 09:56:46;;;;;;;9.50;5.50;;;;;;;17.79;62.41;100825.85;105583;1257;59638;-54
2023/10/01 09:59:15;;;;;;;8.70;5.50;;;;;;;17.79;62.07;100827.09;105865;1255;62905;-56
2023/10/01 10:01:43;;;;;;;8.60;5.40;;;;;;;17.75;61.69;100825.55;105210;1254;61365;-54
2023/10/01 10:04:11;;;;;;;9.50;5.80;;;;;;;17.73;61.51;100830.55;105094;1261;63759;-54
2023/10/01 10:06:39;;;;;;;10.20;5.90;;;;;;;17.73;61.57;100835.94;105184;1261;59722;-56
2023/10/01 10:09:25;;;;;;;8.10;4.60;;;;;;;17.73;61.50;100833.27;105321;1259;59536;-55
2023/10/01 10:11:53;;;;;;;;;;;;;;;17.76;61.18;100831.50;105599;1257;64578;-55
2023/10/01 10:14:25;;;;;;;9.40;4.60;;;;;;;17.81;60.86;100833.13;105666;1256;61395;-53
2023/10/01 10:17:00;;;;;;;9.90;4.80;;;;;;;17.81;60.61;100834.48;105731;1256;63807;-57
2023/10/01 10:19:31;;;;;;;9.00;4.30;;;;;;;17.81;60.14;100836.18;105132;1256;59682;-57
2023/10/01 10:24:45;;;;;;;10.40;4.40;;;;;;;17.77;59.77;100835.80;105174;1257;71930;-54
2023/10/01 10:27:31;;;;;;;7.20;3.60;;;;;;;17.77;59.72;100836.05;105852;1259;60135;-56
2023/10/01 10:30:01;;;;;;;9.30;3.70;;;;;;;17.84;59.43;100833.91;105452;1255;63720;-59
2023/10/01 10:32:42;;;;;;;7.90;3.80;;;;;;;17.91;58.96;100830.50;105144;1257;59730;-56
2023/10/01 10:35:14;;;;;;;8.10;3.60;;;;;;;17.99;58.22;100831.50;105178;1256;59624;-55
2023/10/01 10:37:53;;;;;;;10.40;3.70;;;;;;;18.08;58.28;100832.37;105252;1256;64603;-57
2023/10/01 10:40:24;;;;;;;9.50;3.60;;;;;;;18.20;58.20;100828.09;105611;1257;61768;-55
2023/10/01 10:42:57;;;;;;;6.80;2.80;;;;;;;18.35;58.07;100829.86;105262;1259;62506;-56
2023/10/01 10:45:45;;;;;;;7.40;3.20;;;;;;;18.51;56.57;100831.35;105141;1255;59776;-54
2023/10/01 10:48:21;;;;;;;8.60;3.40;;;;;;;18.62;55.85;100830.88;105126;1261;59769;-53
2023/10/01 10:50:49;;;;;;;7.90;3.20;;;;;;;18.68;55.12;100827.58;105702;1255;62876;-58
2023/10/01 10:53:21;;;;;;;7.60;3.10;;;;;;;18.73;54.77;100828.28;105211;1261;60158;-52
2023/10/01 10:56:17;;;;;;;8.10;3.50;;;;;;;18.75;54.37;100826.27;105681;1256;64171;-52
2023/10/01 10:58:45;;;;;;;5.70;2.80;;;;;;;18.76;54.48;100827.05;105111;1260;60386;-55
2023/10/01 11:01:18;;;;;;;10.80;3.40;;;;;;;18.72;54.34;100823.35;105298;1260;59549;-57
2023/10/01 11:03:57;;;;;;;7.70;3.00;;;;;;;18.71;54.23;100823.15;105252;1254;64122;-56
2023/10/01 11:06:44;;;;;;;8.70;3.60;;;;;;;18.75;53.89;100821.11;105609;1255;61935;-60
2023/10/01 11:09:30;;;;;;;8.40;2.70;;;;;;;18.81;53.96;100820.52;105198;1256;63783;-57
2023/10/01 11:12:19;;;;;;;9.70;3.10;;;;;;;18.88;54.13;100815.89;105461;1260;59883;-57
2023/10/01 11:14:55;;;;;;;8.10;3.20;;;;;;;19.01;53.90;100811.92;105785;1256;59562;-58
2023/10/01 11:17:22;;;;;;;9.20;3.00;;;;;;;19.14;53.25;100808.21;105181;1260;64711;-58
2023/10/01 11:19:58;;;;;;;7.90;3.30;;;;;;;19.21;52.63;100806.96;105220;1254;61326;-57
2023/10/01 11:22:26;;;;;;;8.10;2.90;;;;;;;19.28;52.64;100806.98;106450;1255;64204;-58
2023/10/01 11:24:53;;;;;;;9.10;3.10;;;;;;;19.38;52.20;100805.20;105674;1256;60322;-56
2023/10/01 11:29:57;;;;;;;7.50;3.00;;;;;;;19.50;51.25;100800.46;105654;1260;64651;-58
2023/10/01 11:33:31;;;;;;;7.10;2.70;;;;;;;19.57;51.11;100796.14;105552;1256;60130;-58
2023/10/01 11:35:34;;;;;;;6.10;2.30;;;;;;;19.69;50.76;100800.20;105242;1257;72747;-59
2023/10/01 11:38:12;;;;;;;7.80;3.00;;;;;;;19.79;50.29;100800.16;105229;1256;59642;-55
2023/10/01 11:43:36;;;;;;;8.20;2.80;;;;;;;19.98;50.05;100792.71;105150;1260;64354;-58
2023/10/01 11:46:19;;;;;;;5.80;2.50;;;;;;;20.03;49.46;100790.64;105287;1256;61465;-58
2023/10/01 11:49:10;;;;;;;8.20;2.40;;;;;;;20.08;50.02;100783.56;105152;1257;62548;-56
2023/10/01 11:51:50;;;;;;;7.20;3.00;;;;;;;20.12;50.07;100781.44;105246;1256;59635;-57
2023/10/01 11:54:19;;;;;;;6.70;2.80;;;;;;;20.10;49.74;100779.72;105170;1259;61712;-59
2023/10/01 11:57:51;;;;;;;9.40;2.80;;;;;;;20.04;49.85;100777.98;105926;1258;64107;-55
2023/10/01 11:59:42;;;;;;;7.70;2.90;;;;;;;19.98;50.51;100777.05;105195;1258;61366;-58
2023/10/01 12:02:20;;;;;;;8.00;3.00;;;;;;;19.98;50.74;100777.14;105122;1257;63792;-60
2023/10/01 12:04:59;;;;;;;7.50;2.80;;;;;;;20.04;50.42;100775.81;105122;1257;60342;-61
2023/10/01 12:07:32;;;;;;;9.40;3.30;;;;;;;20.13;49.86;100774.46;105495;1260;59641;-54
2023/10/01 12:10:31;;;;;;;8.80;3.50;;;;;;;20.23;49.42;100769.93;105433;1260;65024;-62
2023/10/01 12:12:48;;;;;;;9.60;2.90;;;;;;;20.35;48.99;100767.07;105230;1256;60103;-60
2023/10/01 12:15:34;;;;;;;8.00;2.70;;;;;;;20.49;48.42;100766.88;105744;1256;62543;-58
2023/10/01 12:18:17;;;;;;;9.30;2.90;;;;;;;20.62;48.86;100770.44;105161;1256;61397;-59